createdAt,value
2018-06-13T04:09:57.345Z,1008.57
2018-06-13T04:10:22.808Z,1008.57
2018-06-13T04:10:48.303Z,1008.61
2018-06-13T04:11:13.797Z,1008.59
2018-06-13T04:11:39.251Z,1008.59
2018-06-13T04:12:04.740Z,1008.61
2018-06-13T04:12:30.337Z,1008.64
2018-06-13T04:12:55.788Z,1008.62
2018-06-13T04:13:21.338Z,1008.62
2018-06-13T04:13:46.865Z,1008.68
2018-06-13T04:14:12.283Z,1008.64
2018-06-13T04:14:37.836Z,1008.65
2018-06-13T04:15:03.298Z,1008.68
2018-06-13T04:15:28.786Z,1008.66
2018-06-13T04:15:54.356Z,1008.69
2018-06-13T04:16:19.829Z,1008.65
2018-06-13T04:16:45.307Z,1008.63
2018-06-13T04:17:10.821Z,1008.63
2018-06-13T04:17:36.362Z,1008.64
2018-06-13T04:18:01.841Z,1008.61
2018-06-13T04:18:27.303Z,1008.69
2018-06-13T04:18:52.823Z,1008.65
2018-06-13T04:19:18.314Z,1008.59
2018-06-13T04:19:43.747Z,1008.6
2018-06-13T04:20:47.351Z,1008.6
2018-06-13T04:21:12.852Z,1008.61
2018-06-13T04:21:38.362Z,1008.58
2018-06-13T04:22:03.865Z,1008.57
2018-06-13T04:22:29.373Z,1008.55
2018-06-13T04:22:54.778Z,1008.6
2018-06-13T04:23:20.292Z,1008.63
2018-06-13T04:23:45.734Z,1008.58
2018-06-13T04:24:11.269Z,1008.64
2018-06-13T04:24:36.764Z,1008.63
2018-06-13T04:25:02.247Z,1008.64
2018-06-13T04:25:27.765Z,1008.67
2018-06-13T04:25:53.293Z,1008.6
2018-06-13T04:26:18.802Z,1008.63
2018-06-13T04:26:44.315Z,1008.61
2018-06-13T04:27:09.823Z,1008.64
2018-06-13T04:27:35.286Z,1008.67
2018-06-13T04:28:00.758Z,1008.66
2018-06-13T04:28:26.241Z,1008.65
2018-06-13T04:28:51.719Z,1008.66
2018-06-13T04:29:17.191Z,1008.67
2018-06-13T04:29:43.570Z,1008.64
2018-06-13T04:30:09.758Z,1008.64
2018-06-13T04:30:35.296Z,1008.66
2018-06-13T04:31:00.814Z,1008.72
2018-06-13T04:31:26.438Z,1008.67
2018-06-13T04:31:51.891Z,1008.67
2018-06-13T04:32:17.374Z,1008.66
2018-06-13T04:32:42.913Z,1008.64
2018-06-13T04:33:08.389Z,1008.65
2018-06-13T04:33:33.860Z,1008.63
2018-06-13T04:33:59.360Z,1008.65
2018-06-13T04:34:24.862Z,1008.64
2018-06-13T04:34:50.381Z,1008.63
2018-06-13T04:35:15.851Z,1008.65
2018-06-13T04:35:41.345Z,1008.63
2018-06-13T04:36:06.826Z,1008.64
2018-06-13T04:36:32.322Z,1008.61
2018-06-13T04:36:57.801Z,1008.6
2018-06-13T04:37:23.303Z,1008.59
2018-06-13T04:37:48.817Z,1008.62
2018-06-13T04:38:14.308Z,1008.62
2018-06-13T04:38:39.791Z,1008.63
2018-06-13T04:39:05.288Z,1008.63
2018-06-13T04:39:30.976Z,1008.6
2018-06-13T04:39:56.430Z,1008.63
2018-06-13T04:40:21.905Z,1008.64
2018-06-13T04:40:47.466Z,1008.61
2018-06-13T04:41:12.969Z,1008.62
2018-06-13T04:41:38.453Z,1008.64
2018-06-13T04:42:03.945Z,1008.62
2018-06-13T04:42:29.449Z,1008.65
2018-06-13T04:42:55.078Z,1008.6
2018-06-13T04:43:20.629Z,1008.63
2018-06-13T04:43:46.118Z,1008.63
2018-06-13T04:44:11.619Z,1008.64
2018-06-13T04:44:37.106Z,1008.61
2018-06-13T04:45:02.578Z,1008.61
2018-06-13T04:45:28.088Z,1008.6
2018-06-13T04:45:53.590Z,1008.62
2018-06-13T04:46:19.105Z,1008.64
2018-06-13T04:46:44.568Z,1008.62
2018-06-13T04:47:10.072Z,1008.64
2018-06-13T04:48:18.804Z,1008.63
2018-06-13T04:48:44.285Z,1008.61
2018-06-13T04:49:09.788Z,1008.61
2018-06-13T04:49:35.308Z,1008.6
2018-06-13T04:50:00.799Z,1008.59
2018-06-13T04:50:26.307Z,1008.58
2018-06-13T04:50:51.827Z,1008.6
2018-06-13T04:51:17.362Z,1008.57
2018-06-13T04:51:42.862Z,1008.53
2018-06-13T04:52:08.339Z,1008.54
2018-06-13T04:52:33.846Z,1008.52
2018-06-13T04:52:59.332Z,1008.49
2018-06-13T04:53:24.804Z,1008.49
2018-06-13T04:53:50.278Z,1008.43
2018-06-13T04:54:15.786Z,1008.46
2018-06-13T04:54:41.282Z,1008.48
2018-06-13T04:55:06.754Z,1008.43
2018-06-13T04:55:32.276Z,1008.48
2018-06-13T04:55:57.766Z,1008.46
2018-06-13T04:56:23.289Z,1008.48
2018-06-13T04:56:49.121Z,1008.49
2018-06-13T04:57:14.595Z,1008.48
2018-06-13T04:57:40.048Z,1008.48
2018-06-13T04:58:05.563Z,1008.51
2018-06-13T04:58:31.053Z,1008.47
2018-06-13T04:58:56.546Z,1008.48
2018-06-13T04:59:22.038Z,1008.49
2018-06-13T04:59:47.528Z,1008.43
2018-06-13T05:00:13.012Z,1008.44
2018-06-13T05:00:38.479Z,1008.46
2018-06-13T05:01:04.025Z,1008.45
2018-06-13T05:01:29.545Z,1008.45
2018-06-13T05:01:55.209Z,1008.44
2018-06-13T05:02:20.823Z,1008.41
2018-06-13T05:02:46.310Z,1008.43
2018-06-13T05:03:11.909Z,1008.45
2018-06-13T05:03:37.371Z,1008.46
2018-06-13T05:04:03.124Z,1008.48
2018-06-13T05:04:28.526Z,1008.45
2018-06-13T05:04:54.012Z,1008.47
2018-06-13T05:05:19.510Z,1008.45
2018-06-13T05:05:44.963Z,1008.47
2018-06-13T05:07:03.894Z,1008.48
2018-06-13T05:07:29.402Z,1008.56
2018-06-13T05:07:54.859Z,1008.5
2018-06-13T05:08:20.332Z,1008.5
2018-06-13T05:08:45.842Z,1008.52
2018-06-13T05:09:11.422Z,1008.51
2018-06-13T05:09:36.942Z,1008.52
2018-06-13T05:10:02.439Z,1008.48
2018-06-13T05:10:27.907Z,1008.51
2018-06-13T05:10:53.434Z,1008.52
2018-06-13T05:11:18.956Z,1008.55
2018-06-13T05:11:44.476Z,1008.52
2018-06-13T05:12:09.972Z,1008.51
2018-06-13T05:12:35.487Z,1008.55
2018-06-13T05:13:01.070Z,1008.54
2018-06-13T05:13:26.584Z,1008.54
2018-06-13T05:13:52.087Z,1008.56
2018-06-13T05:14:17.571Z,1008.56
2018-06-13T05:14:43.096Z,1008.55
2018-06-13T05:15:08.545Z,1008.56
2018-06-13T05:15:34.045Z,1008.59
2018-06-13T05:15:59.541Z,1008.59
2018-06-13T05:16:25.049Z,1008.6
2018-06-13T05:16:50.642Z,1008.59
2018-06-13T05:17:16.120Z,1008.56
2018-06-13T05:17:41.714Z,1008.59
2018-06-13T05:18:07.167Z,1008.63
2018-06-13T05:18:32.636Z,1008.63
2018-06-13T05:18:58.140Z,1008.64
2018-06-13T05:19:23.576Z,1008.62
2018-06-13T05:19:49.120Z,1008.62
2018-06-13T05:20:14.599Z,1008.64
2018-06-13T05:20:40.041Z,1008.64
2018-06-13T05:21:05.511Z,1008.63
2018-06-13T05:21:30.963Z,1008.66
2018-06-13T05:21:56.484Z,1008.62
2018-06-13T05:22:22.032Z,1008.66
2018-06-13T05:22:47.481Z,1008.65
2018-06-13T05:23:12.946Z,1008.68
2018-06-13T05:23:38.449Z,1008.65
2018-06-13T05:24:03.923Z,1008.63
2018-06-13T05:24:29.432Z,1008.64
2018-06-13T05:24:54.901Z,1008.66
2018-06-13T05:25:20.382Z,1008.65
2018-06-13T05:25:45.887Z,1008.68
2018-06-13T05:26:11.379Z,1008.66
2018-06-13T05:26:36.904Z,1008.67
2018-06-13T05:27:02.387Z,1008.7
2018-06-13T05:27:27.964Z,1008.7
2018-06-13T05:27:53.464Z,1008.66
2018-06-13T05:28:18.981Z,1008.64
2018-06-13T05:28:44.492Z,1008.67
2018-06-13T05:29:09.957Z,1008.69
2018-06-13T05:29:35.485Z,1008.66
2018-06-13T05:30:00.973Z,1008.65
2018-06-13T05:30:26.418Z,1008.63
2018-06-13T05:30:51.953Z,1008.63
2018-06-13T05:31:17.450Z,1008.62
2018-06-13T05:31:43.181Z,1008.63
2018-06-13T05:32:08.883Z,1008.63
2018-06-13T05:32:34.410Z,1008.67
2018-06-13T05:32:59.926Z,1008.64
2018-06-13T05:33:25.438Z,1008.61
2018-06-13T05:33:50.900Z,1008.65
2018-06-13T05:34:16.392Z,1008.67
2018-06-13T05:34:41.986Z,1008.65
2018-06-13T05:35:07.487Z,1008.62
2018-06-13T05:35:32.981Z,1008.63
2018-06-13T05:35:58.667Z,1008.56
2018-06-13T05:36:24.185Z,1008.56
2018-06-13T05:36:49.668Z,1008.57
2018-06-13T05:37:15.160Z,1008.59
2018-06-13T05:37:40.684Z,1008.58
2018-06-13T05:38:06.180Z,1008.61
2018-06-13T05:38:31.653Z,1008.59
2018-06-13T05:38:57.161Z,1008.61
2018-06-13T05:39:22.697Z,1008.59
2018-06-13T05:39:48.185Z,1008.58
2018-06-13T05:40:13.748Z,1008.59
2018-06-13T05:40:39.170Z,1008.59
2018-06-13T05:41:04.669Z,1008.64
2018-06-13T05:41:30.163Z,1008.61
2018-06-13T05:41:55.635Z,1008.65
2018-06-13T05:42:21.080Z,1008.62
2018-06-13T05:42:46.589Z,1008.57
2018-06-13T05:43:12.222Z,1008.62
2018-06-13T05:43:37.729Z,1008.66
2018-06-13T05:44:03.221Z,1008.65
2018-06-13T05:44:28.755Z,1008.68
2018-06-13T05:44:54.410Z,1008.69
2018-06-13T05:45:19.939Z,1008.75
2018-06-13T05:45:45.467Z,1008.69
2018-06-13T05:46:10.916Z,1008.73
2018-06-13T05:46:36.422Z,1008.71
2018-06-13T05:47:01.862Z,1008.73
2018-06-13T05:47:27.327Z,1008.73
2018-06-13T05:47:52.825Z,1008.72
2018-06-13T05:48:18.250Z,1008.74
2018-06-13T05:48:43.803Z,1008.74
2018-06-13T05:49:09.287Z,1008.77
2018-06-13T05:49:34.713Z,1008.73
2018-06-13T05:50:00.235Z,1008.78
2018-06-13T05:50:25.642Z,1008.76
2018-06-13T05:50:51.089Z,1008.81
2018-06-13T05:51:16.601Z,1008.8
2018-06-13T05:51:42.059Z,1008.8
2018-06-13T05:52:07.537Z,1008.84
2018-06-13T05:52:33.011Z,1008.82
2018-06-13T05:52:58.520Z,1008.81
2018-06-13T05:53:24.007Z,1008.85
2018-06-13T05:53:49.434Z,1008.82
2018-06-13T05:54:14.934Z,1008.86
2018-06-13T05:54:40.407Z,1008.82
2018-06-13T05:55:05.821Z,1008.85
2018-06-13T05:55:31.308Z,1008.87
2018-06-13T05:55:56.828Z,1008.84
2018-06-13T05:56:22.279Z,1008.92
2018-06-13T05:56:47.807Z,1008.86
2018-06-13T05:57:13.280Z,1008.85
2018-06-13T05:57:38.729Z,1008.83
2018-06-13T05:58:04.215Z,1008.86
2018-06-13T05:58:29.766Z,1008.84
2018-06-13T05:58:55.198Z,1008.85
2018-06-13T05:59:20.685Z,1008.82
2018-06-13T05:59:46.200Z,1008.83
2018-06-13T06:00:11.646Z,1008.85
2018-06-13T06:00:37.061Z,1008.86
2018-06-13T06:01:02.541Z,1008.83
2018-06-13T06:01:28.007Z,1008.85
2018-06-13T06:01:53.493Z,1008.87
2018-06-13T06:02:18.920Z,1008.85
2018-06-13T06:02:44.433Z,1008.87
2018-06-13T06:03:09.909Z,1008.88
2018-06-13T06:03:35.329Z,1008.92
2018-06-13T06:04:00.832Z,1008.88
2018-06-13T06:04:26.374Z,1008.91
2018-06-13T06:04:51.871Z,1008.87
2018-06-13T06:05:17.339Z,1008.88
2018-06-13T06:05:42.788Z,1008.87
2018-06-13T06:06:08.232Z,1008.91
2018-06-13T06:06:33.693Z,1008.92
2018-06-13T06:06:59.182Z,1008.93
2018-06-13T06:07:24.705Z,1008.96
2018-06-13T06:07:50.176Z,1008.91
2018-06-13T06:08:15.770Z,1008.93
2018-06-13T06:08:41.220Z,1008.92
2018-06-13T06:09:06.751Z,1008.92
2018-06-13T06:09:32.155Z,1008.9
2018-06-13T06:09:57.667Z,1008.96
2018-06-13T06:10:23.236Z,1008.91
2018-06-13T06:10:48.621Z,1008.91
2018-06-13T06:11:14.084Z,1008.94
2018-06-13T06:11:39.539Z,1008.89
2018-06-13T06:12:05.025Z,1008.9
2018-06-13T06:12:30.527Z,1008.9
2018-06-13T06:12:56.002Z,1008.93
2018-06-13T06:13:21.448Z,1008.89
2018-06-13T06:13:46.899Z,1008.92
2018-06-13T06:14:12.396Z,1008.91
2018-06-13T06:14:37.872Z,1008.93
2018-06-13T06:15:03.316Z,1008.9
2018-06-13T06:15:28.827Z,1008.9
2018-06-13T06:15:54.287Z,1008.93
2018-06-13T06:16:19.798Z,1008.96
2018-06-13T06:16:45.267Z,1008.93
2018-06-13T06:17:10.706Z,1008.97
2018-06-13T06:17:36.202Z,1009.01
2018-06-13T06:18:01.694Z,1008.95
2018-06-13T06:18:27.122Z,1008.99
2018-06-13T06:18:52.593Z,1009.01
2018-06-13T06:19:18.091Z,1008.98
2018-06-13T06:19:43.550Z,1008.98
2018-06-13T06:20:08.997Z,1008.98
2018-06-13T06:20:34.469Z,1008.97
2018-06-13T06:20:59.965Z,1008.99
2018-06-13T06:21:25.480Z,1009.02
2018-06-13T06:21:50.967Z,1008.99
2018-06-13T06:22:16.510Z,1008.98
2018-06-13T06:23:20.636Z,1008.97
2018-06-13T06:23:46.152Z,1009.04
2018-06-13T06:24:11.631Z,1008.97
2018-06-13T06:24:37.103Z,1008.98
2018-06-13T06:25:02.627Z,1009.05
2018-06-13T06:25:28.201Z,1009.02
2018-06-13T06:25:53.929Z,1009
2018-06-13T06:26:19.562Z,1009.01
2018-06-13T06:26:45.045Z,1009.02
2018-06-13T06:27:10.573Z,1009.06
2018-06-13T06:27:36.019Z,1009.06
2018-06-13T06:28:01.470Z,1009.04
2018-06-13T06:28:27.018Z,1009.02
2018-06-13T06:28:52.472Z,1009.02
2018-06-13T06:29:17.953Z,1009.01
2018-06-13T06:29:43.439Z,1009
2018-06-13T06:30:08.915Z,1009.03
2018-06-13T06:30:34.400Z,1009.06
2018-06-13T06:30:59.929Z,1009.04
2018-06-13T06:31:25.546Z,1009.05
2018-06-13T06:31:51.157Z,1009.04
2018-06-13T06:32:16.647Z,1009.08
2018-06-13T06:32:42.119Z,1009.04
2018-06-13T06:33:07.615Z,1009.07
2018-06-13T06:33:33.229Z,1009.05
2018-06-13T06:33:58.776Z,1009.02
2018-06-13T06:34:24.298Z,1009.04
2018-06-13T06:34:49.781Z,1009.07
2018-06-13T06:35:15.255Z,1009.03
2018-06-13T06:35:40.904Z,1009.09
2018-06-13T06:36:06.368Z,1009.06
2018-06-13T06:36:31.926Z,1009.05
2018-06-13T06:36:57.544Z,1009.06
2018-06-13T06:38:11.364Z,1009.08
2018-06-13T06:38:36.894Z,1009.07
2018-06-13T06:39:02.530Z,1009.08
2018-06-13T06:39:28.320Z,1009.12
2018-06-13T06:39:53.822Z,1009.08
2018-06-13T06:40:19.834Z,1009.07
2018-06-13T06:40:45.683Z,1009.12
2018-06-13T06:41:11.186Z,1009.18
2018-06-13T06:41:36.658Z,1009.15
2018-06-13T06:42:02.117Z,1009.14
2018-06-13T06:42:27.566Z,1009.14
2018-06-13T06:42:53.059Z,1009.12
2018-06-13T06:43:18.474Z,1009.13
2018-06-13T06:43:44.152Z,1009.14
2018-06-13T06:44:09.656Z,1009.14
2018-06-13T06:44:35.221Z,1009.15
2018-06-13T06:45:00.986Z,1009.15
2018-06-13T06:45:26.306Z,1009.18
2018-06-13T06:45:51.950Z,1009.17
2018-06-13T06:46:17.516Z,1009.2
2018-06-13T06:46:43.077Z,1009.16
2018-06-13T06:47:08.708Z,1009.16
2018-06-13T06:47:34.319Z,1009.19
2018-06-13T06:47:59.827Z,1009.19
2018-06-13T06:48:25.355Z,1009.15
2018-06-13T06:48:51.040Z,1009.13
2018-06-13T06:49:16.760Z,1009.15
2018-06-13T06:49:42.328Z,1009.14
2018-06-13T06:50:07.769Z,1009.16
2018-06-13T06:50:33.343Z,1009.13
2018-06-13T06:50:58.804Z,1009.09
2018-06-13T06:51:24.335Z,1009.09
2018-06-13T06:51:49.811Z,1009.12
2018-06-13T06:52:15.289Z,1009.14
2018-06-13T06:52:40.796Z,1009.12
2018-06-13T06:53:06.286Z,1009.08
2018-06-13T06:53:31.835Z,1009.15
2018-06-13T06:53:57.374Z,1009.1
2018-06-13T06:54:22.889Z,1009.08
2018-06-13T06:54:48.387Z,1009.17
2018-06-13T06:55:13.898Z,1009.16
2018-06-13T06:55:39.441Z,1009.15
2018-06-13T06:56:05.044Z,1009.14
2018-06-13T06:56:30.585Z,1009.13
2018-06-13T06:56:56.149Z,1009.14
2018-06-13T06:57:21.824Z,1009.13
2018-06-13T06:57:47.274Z,1009.14
2018-06-13T06:58:12.899Z,1009.15
2018-06-13T06:58:38.467Z,1009.12
2018-06-13T06:59:04.314Z,1009.15
2018-06-13T06:59:29.923Z,1009.18
2018-06-13T06:59:55.361Z,1009.15
2018-06-13T07:00:20.860Z,1009.15
2018-06-13T07:00:49.800Z,1009.18
2018-06-13T07:01:15.334Z,1009.14
2018-06-13T07:01:40.803Z,1009.16
2018-06-13T07:02:07.036Z,1009.16
2018-06-13T07:02:32.610Z,1009.16
2018-06-13T07:02:58.115Z,1009.15
2018-06-13T07:03:23.940Z,1009.14
2018-06-13T07:03:49.438Z,1009.17
2018-06-13T07:04:15.332Z,1009.16
2018-06-13T07:04:40.926Z,1009.18
2018-06-13T07:05:06.367Z,1009.15
2018-06-13T07:05:31.880Z,1009.17
2018-06-13T07:05:57.381Z,1009.18
2018-06-13T07:06:23.218Z,1009.18
2018-06-13T07:06:48.925Z,1009.16
2018-06-13T07:07:14.668Z,1009.15
2018-06-13T07:07:40.170Z,1009.17
2018-06-13T07:08:05.691Z,1009.16
2018-06-13T07:08:31.314Z,1009.12
2018-06-13T07:08:56.806Z,1009.12
2018-06-13T07:09:22.266Z,1009.1
2018-06-13T07:09:47.864Z,1009.11
2018-06-13T07:10:13.451Z,1009.07
2018-06-13T07:10:39.067Z,1009.09
2018-06-13T07:11:04.637Z,1009.07
2018-06-13T07:11:30.012Z,1009.12
2018-06-13T07:11:55.519Z,1009.12
2018-06-13T07:12:20.999Z,1009.11
2018-06-13T07:12:46.441Z,1009.14
2018-06-13T07:13:11.909Z,1009.1
2018-06-13T07:13:37.562Z,1009.14
2018-06-13T07:14:03.017Z,1009.15
2018-06-13T07:14:28.496Z,1009.16
2018-06-13T07:14:54.079Z,1009.13
2018-06-13T07:15:19.634Z,1009.12
2018-06-13T07:15:45.302Z,1009.13
2018-06-13T07:16:10.775Z,1009.17
2018-06-13T07:16:36.245Z,1009.15
2018-06-13T07:17:01.748Z,1009.14
2018-06-13T07:17:27.229Z,1009.17
2018-06-13T07:17:52.732Z,1009.13
2018-06-13T07:18:18.230Z,1009.19
2018-06-13T07:18:43.734Z,1009.2
2018-06-13T07:19:09.260Z,1009.2
2018-06-13T07:19:34.970Z,1009.22
2018-06-13T07:20:00.597Z,1009.19
2018-06-13T07:20:26.158Z,1009.21
2018-06-13T07:20:51.658Z,1009.2
2018-06-13T07:21:17.162Z,1009.2
2018-06-13T07:21:43.045Z,1009.2
2018-06-13T07:22:08.645Z,1009.21
2018-06-13T07:22:34.192Z,1009.18
2018-06-13T07:22:59.731Z,1009.22
2018-06-13T07:23:25.220Z,1009.2
2018-06-13T07:23:50.887Z,1009.23
2018-06-13T07:24:16.382Z,1009.2
2018-06-13T07:24:41.825Z,1009.25
2018-06-13T07:25:07.703Z,1009.24
2018-06-13T07:25:33.319Z,1009.27
2018-06-13T07:25:58.814Z,1009.25
2018-06-13T07:26:24.343Z,1009.26
2018-06-13T07:26:50.088Z,1009.23
2018-06-13T07:27:15.643Z,1009.23
2018-06-13T07:27:41.144Z,1009.22
2018-06-13T07:28:06.814Z,1009.22
2018-06-13T07:28:32.288Z,1009.25
2018-06-13T07:28:57.827Z,1009.24
2018-06-13T07:29:23.423Z,1009.25
2018-06-13T07:29:48.969Z,1009.23
2018-06-13T07:30:14.536Z,1009.27
2018-06-13T07:30:40.397Z,1009.31
2018-06-13T07:31:05.772Z,1009.25
2018-06-13T07:31:31.200Z,1009.25
2018-06-13T07:31:56.729Z,1009.25
2018-06-13T07:32:22.259Z,1009.21
2018-06-13T07:32:47.761Z,1009.24
2018-06-13T07:33:13.232Z,1009.23
2018-06-13T07:33:38.726Z,1009.24
2018-06-13T07:34:04.268Z,1009.23
2018-06-13T07:34:29.712Z,1009.23
2018-06-13T07:34:55.255Z,1009.21
2018-06-13T07:35:20.742Z,1009.24
2018-06-13T07:35:46.182Z,1009.19
2018-06-13T07:36:11.756Z,1009.24
2018-06-13T07:36:37.294Z,1009.24
2018-06-13T07:37:02.798Z,1009.18
2018-06-13T07:37:28.161Z,1009.21
2018-06-13T07:37:53.840Z,1009.22
2018-06-13T07:38:19.289Z,1009.25
2018-06-13T07:38:44.816Z,1009.22
2018-06-13T07:39:10.427Z,1009.21
2018-06-13T07:39:35.909Z,1009.22
2018-06-13T07:40:01.444Z,1009.22
2018-06-13T07:40:26.922Z,1009.23
2018-06-13T07:40:52.486Z,1009.2
2018-06-13T07:41:17.982Z,1009.23
2018-06-13T07:42:16.528Z,1009.27
2018-06-13T07:42:42.027Z,1009.23
2018-06-13T07:43:07.528Z,1009.28
2018-06-13T07:43:33.016Z,1009.27
2018-06-13T07:43:58.518Z,1009.29
2018-06-13T07:44:24.032Z,1009.29
2018-06-13T07:44:49.527Z,1009.25
2018-06-13T07:45:15.028Z,1009.25
2018-06-13T07:45:40.531Z,1009.26
2018-06-13T07:46:06.027Z,1009.23
2018-06-13T07:46:31.578Z,1009.24
2018-06-13T07:46:57.040Z,1009.29
2018-06-13T07:47:22.603Z,1009.27
2018-06-13T07:47:48.059Z,1009.27
2018-06-13T07:48:13.677Z,1009.28
2018-06-13T07:48:39.219Z,1009.3
2018-06-13T07:49:04.718Z,1009.29
2018-06-13T07:49:30.210Z,1009.26
2018-06-13T07:49:55.706Z,1009.25
2018-06-13T07:50:21.330Z,1009.28
2018-06-13T07:50:46.851Z,1009.31
2018-06-13T07:51:12.338Z,1009.3
2018-06-13T07:51:38.011Z,1009.27
2018-06-13T07:52:03.846Z,1009.25
2018-06-13T07:52:29.420Z,1009.27
2018-06-13T07:52:54.956Z,1009.26
2018-06-13T07:53:21.569Z,1009.27
2018-06-13T07:53:47.014Z,1009.31
2018-06-13T07:54:12.511Z,1009.23
2018-06-13T07:54:38.073Z,1009.34
2018-06-13T07:55:03.526Z,1009.32
2018-06-13T07:55:28.982Z,1009.3
2018-06-13T07:55:54.477Z,1009.3
2018-06-13T07:56:19.973Z,1009.29
2018-06-13T07:56:45.430Z,1009.32
2018-06-13T07:57:11.435Z,1009.23
2018-06-13T07:57:36.955Z,1009.26
2018-06-13T07:58:02.478Z,1009.31
2018-06-13T07:58:27.970Z,1009.3
2018-06-13T07:58:53.399Z,1009.31
2018-06-13T07:59:18.909Z,1009.34
2018-06-13T07:59:44.480Z,1009.31
2018-06-13T08:00:10.512Z,1009.34
2018-06-13T08:00:35.929Z,1009.31
2018-06-13T08:01:01.436Z,1009.27
2018-06-13T08:01:27.030Z,1009.31
2018-06-13T08:01:52.567Z,1009.28
2018-06-13T08:02:18.141Z,1009.25
2018-06-13T08:02:43.784Z,1009.27
2018-06-13T08:03:09.193Z,1009.23
2018-06-13T08:03:34.755Z,1009.23
2018-06-13T08:04:00.198Z,1009.23
2018-06-13T08:04:25.670Z,1009.28
2018-06-13T08:04:51.227Z,1009.27
2018-06-13T08:05:16.714Z,1009.27
2018-06-13T08:05:42.156Z,1009.29
2018-06-13T08:06:07.775Z,1009.26
2018-06-13T08:06:33.364Z,1009.32
2018-06-13T08:06:58.781Z,1009.25
2018-06-13T08:07:24.255Z,1009.28
2018-06-13T08:07:49.787Z,1009.23
2018-06-13T08:08:15.459Z,1009.26
2018-06-13T08:08:41.070Z,1009.26
2018-06-13T08:09:06.363Z,1009.29
2018-06-13T08:09:31.848Z,1009.31
2018-06-13T08:09:57.298Z,1009.32
2018-06-13T08:10:22.849Z,1009.27
2018-06-13T08:10:48.337Z,1009.31
2018-06-13T08:11:13.785Z,1009.33
2018-06-13T08:11:39.343Z,1009.34
2018-06-13T08:12:04.913Z,1009.35
2018-06-13T08:12:30.355Z,1009.34
2018-06-13T08:12:55.870Z,1009.33
2018-06-13T08:13:21.479Z,1009.32
2018-06-13T08:13:46.910Z,1009.38
2018-06-13T08:14:12.353Z,1009.39
2018-06-13T08:14:37.871Z,1009.39
2018-06-13T08:15:03.327Z,1009.37
2018-06-13T08:15:28.812Z,1009.38
2018-06-13T08:15:54.322Z,1009.37
2018-06-13T08:16:19.851Z,1009.4
2018-06-13T08:16:45.307Z,1009.42
2018-06-13T08:17:10.809Z,1009.41
2018-06-13T08:17:36.231Z,1009.3
2018-06-13T08:18:01.706Z,1009.37
2018-06-13T08:18:27.221Z,1009.37
2018-06-13T08:18:52.705Z,1009.37
2018-06-13T08:19:18.164Z,1009.35
2018-06-13T08:19:43.715Z,1009.41
2018-06-13T08:20:09.133Z,1009.38
2018-06-13T08:20:34.597Z,1009.33
2018-06-13T08:21:00.120Z,1009.36
2018-06-13T08:21:25.597Z,1009.36
2018-06-13T08:21:51.143Z,1009.4
2018-06-13T08:22:16.645Z,1009.41
2018-06-13T08:22:42.123Z,1009.39
2018-06-13T08:23:07.670Z,1009.39
2018-06-13T08:23:33.323Z,1009.36
2018-06-13T08:23:58.851Z,1009.4
2018-06-13T08:24:24.384Z,1009.43
2018-06-13T08:24:49.856Z,1009.42
2018-06-13T08:25:15.334Z,1009.45
2018-06-13T08:25:40.801Z,1009.44
2018-06-13T08:26:06.357Z,1009.43
2018-06-13T08:26:31.967Z,1009.45
2018-06-13T08:26:57.422Z,1009.44
2018-06-13T08:27:22.887Z,1009.52
2018-06-13T08:27:48.410Z,1009.47
2018-06-13T08:28:13.901Z,1009.45
2018-06-13T08:28:39.403Z,1009.51
2018-06-13T08:29:04.907Z,1009.55
2018-06-13T08:29:30.392Z,1009.56
2018-06-13T08:29:55.974Z,1009.56
2018-06-13T08:30:21.515Z,1009.55
2018-06-13T08:30:47.007Z,1009.55
2018-06-13T08:31:12.522Z,1009.58
2018-06-13T08:31:38.008Z,1009.55
2018-06-13T08:32:03.500Z,1009.6
2018-06-13T08:32:29.053Z,1009.57
2018-06-13T08:32:54.518Z,1009.63
2018-06-13T08:33:20.254Z,1009.59
2018-06-13T08:33:45.654Z,1009.62
2018-06-13T08:34:11.084Z,1009.58
2018-06-13T08:34:36.576Z,1009.6
2018-06-13T08:35:02.036Z,1009.63
2018-06-13T08:35:27.538Z,1009.65
2018-06-13T08:35:53.029Z,1009.66
2018-06-13T08:36:18.533Z,1009.66
2018-06-13T08:36:44.053Z,1009.7
2018-06-13T08:37:09.530Z,1009.69
2018-06-13T08:37:35.031Z,1009.65
2018-06-13T08:38:00.532Z,1009.7
2018-06-13T08:38:26.019Z,1009.71
2018-06-13T08:38:51.602Z,1009.7
2018-06-13T08:39:17.086Z,1009.66
2018-06-13T08:39:42.635Z,1009.69
2018-06-13T08:40:08.124Z,1009.72
2018-06-13T08:40:33.618Z,1009.74
2018-06-13T08:40:59.067Z,1009.73
2018-06-13T08:41:24.546Z,1009.68
2018-06-13T08:41:50.037Z,1009.76
2018-06-13T08:42:15.514Z,1009.73
2018-06-13T08:42:41.019Z,1009.78
2018-06-13T08:43:06.521Z,1009.78
2018-06-13T08:43:31.950Z,1009.74
2018-06-13T08:43:57.385Z,1009.77
2018-06-13T08:44:22.868Z,1009.72
2018-06-13T08:44:48.352Z,1009.74
2018-06-13T08:45:13.916Z,1009.71
2018-06-13T08:45:39.355Z,1009.71
2018-06-13T08:46:04.833Z,1009.74
2018-06-13T08:46:30.292Z,1009.76
2018-06-13T08:46:55.780Z,1009.76
2018-06-13T08:47:21.288Z,1009.7
2018-06-13T08:47:46.697Z,1009.7
2018-06-13T08:48:12.186Z,1009.71
2018-06-13T08:48:37.661Z,1009.72
2018-06-13T08:49:03.130Z,1009.73
2018-06-13T08:49:28.640Z,1009.76
2018-06-13T08:49:54.083Z,1009.74
2018-06-13T08:50:19.517Z,1009.72
2018-06-13T08:50:45.048Z,1009.74
2018-06-13T08:51:10.475Z,1009.72
2018-06-13T08:51:35.940Z,1009.73
2018-06-13T08:52:01.413Z,1009.68
2018-06-13T08:52:26.939Z,1009.76
2018-06-13T08:52:52.413Z,1009.71
2018-06-13T08:53:17.897Z,1009.73
2018-06-13T08:53:43.357Z,1009.69
2018-06-13T08:54:08.910Z,1009.72
2018-06-13T08:54:34.321Z,1009.72
2018-06-13T08:54:59.776Z,1009.66
2018-06-13T08:55:25.256Z,1009.69
2018-06-13T08:55:50.835Z,1009.72
2018-06-13T08:56:16.232Z,1009.69
2018-06-13T08:56:41.672Z,1009.67
2018-06-13T08:57:07.137Z,1009.67
2018-06-13T08:57:32.652Z,1009.66
2018-06-13T08:57:58.209Z,1009.67
2018-06-13T08:58:23.658Z,1009.68
2018-06-13T08:58:49.202Z,1009.66
2018-06-13T08:59:14.669Z,1009.69
2018-06-13T08:59:40.088Z,1009.71
2018-06-13T09:00:05.539Z,1009.69
2018-06-13T09:00:31.012Z,1009.71
2018-06-13T09:00:56.493Z,1009.7
2018-06-13T09:01:22.006Z,1009.7
2018-06-13T09:01:47.464Z,1009.72
2018-06-13T09:02:12.976Z,1009.72
2018-06-13T09:02:38.509Z,1009.7
2018-06-13T09:03:03.955Z,1009.74
2018-06-13T09:03:29.382Z,1009.72
2018-06-13T09:03:54.894Z,1009.71
2018-06-13T09:04:20.327Z,1009.72
2018-06-13T09:04:45.797Z,1009.71
2018-06-13T09:05:11.232Z,1009.7
2018-06-13T09:05:36.713Z,1009.71
2018-06-13T09:06:02.208Z,1009.73
2018-06-13T09:06:27.627Z,1009.71
2018-06-13T09:06:53.193Z,1009.69
2018-06-13T09:07:18.662Z,1009.69
2018-06-13T09:07:44.090Z,1009.71
2018-06-13T09:08:09.589Z,1009.67
2018-06-13T09:08:35.034Z,1009.72
2018-06-13T09:09:00.695Z,1009.69
2018-06-13T09:09:26.146Z,1009.7
2018-06-13T09:09:51.598Z,1009.67
2018-06-13T09:10:17.101Z,1009.66
2018-06-13T09:10:42.575Z,1009.68
2018-06-13T09:11:07.995Z,1009.74
2018-06-13T09:11:33.500Z,1009.7
2018-06-13T09:11:58.968Z,1009.73
2018-06-13T09:12:24.391Z,1009.69
2018-06-13T09:12:49.880Z,1009.68
2018-06-13T09:13:15.338Z,1009.65
2018-06-13T09:13:40.771Z,1009.63
2018-06-13T09:14:06.303Z,1009.64
2018-06-13T09:14:31.806Z,1009.62
2018-06-13T09:14:57.373Z,1009.61
2018-06-13T09:15:22.720Z,1009.64
2018-06-13T09:15:48.201Z,1009.59
2018-06-13T09:16:13.723Z,1009.62
2018-06-13T09:16:39.186Z,1009.61
2018-06-13T09:17:04.651Z,1009.57
2018-06-13T09:17:30.178Z,1009.6
2018-06-13T09:17:55.634Z,1009.58
2018-06-13T09:18:21.130Z,1009.61
2018-06-13T09:18:46.601Z,1009.6
2018-06-13T09:19:12.018Z,1009.56
2018-06-13T09:19:37.479Z,1009.57
2018-06-13T09:20:02.951Z,1009.61
2018-06-13T09:20:28.421Z,1009.59
2018-06-13T09:20:53.913Z,1009.59
2018-06-13T09:21:19.486Z,1009.63
2018-06-13T09:21:45.014Z,1009.63
2018-06-13T09:22:10.399Z,1009.56
2018-06-13T09:22:35.854Z,1009.58
2018-06-13T09:23:01.335Z,1009.59
2018-06-13T09:23:26.756Z,1009.59